Time;durP1;ratioP1;P1;durP2;ratioP2;P2;SDS_P1;SDS_P2;PMS_P1;PMS_P2;Temp;Humidity;BMP_temperature;BMP_pressure;BME280_temperature;BME280_humidity;BME280_pressure;Samples;Min_cycle;Max_cycle;Signal;HPM_P1;HPM_P2
2022/07/02 00:00:18;;;;;;;0.65;0.38;;;13.70;99.90;;;;;;5074874;28;20071;-65
2022/07/02 00:02:50;;;;;;;2.30;0.40;;;13.80;99.90;;;;;;5075226;28;20033;-65
2022/07/02 00:05:20;;;;;;;3.88;0.43;;;13.70;99.90;;;;;;5075258;28;20078;-70
2022/07/02 00:07:46;;;;;;;3.60;0.80;;;13.70;99.90;;;;;;5075350;28;20040;-65
2022/07/02 00:10:14;;;;;;;2.53;0.50;;;13.70;99.90;;;;;;5075211;28;20079;-66
2022/07/02 00:12:40;;;;;;;1.85;0.73;;;13.60;99.90;;;;;;5075032;28;20121;-66
2022/07/02 00:15:06;;;;;;;0.82;0.32;;;13.60;99.90;;;;;;5074921;28;20032;-70
2022/07/02 00:17:33;;;;;;;2.30;0.28;;;13.60;99.90;;;;;;5074711;28;20086;-65
2022/07/02 00:20:01;;;;;;;7.68;1.15;;;13.60;99.90;;;;;;5074671;28;20032;-69
2022/07/02 00:22:28;;;;;;;1.00;0.47;;;13.50;99.90;;;;;;5074723;28;20051;-70
2022/07/02 00:24:53;;;;;;;0.88;0.50;;;13.50;99.90;;;;;;5074780;28;20028;-65
2022/07/02 00:27:19;;;;;;;1.67;0.30;;;13.50;99.90;;;;;;5073354;28;20055;-65
2022/07/02 00:30:03;;;;;;;3.92;0.52;;;13.50;99.90;;;;;;5074511;28;20074;-65
2022/07/02 00:32:31;;;;;;;2.45;0.60;;;13.60;99.90;;;;;;5074473;28;20097;-65
2022/07/02 00:34:58;;;;;;;1.52;0.50;;;13.60;99.90;;;;;;5074738;28;20032;-65
2022/07/02 00:37:28;;;;;;;2.92;0.47;;;13.60;99.90;;;;;;5074609;28;20055;-66
2022/07/02 00:39:54;;;;;;;1.90;0.50;;;13.60;99.90;;;;;;5074694;28;20028;-65
2022/07/02 00:42:22;;;;;;;1.25;0.60;;;13.60;99.90;;;;;;5074580;28;20029;-65
2022/07/02 00:44:48;;;;;;;3.13;0.50;;;13.50;99.90;;;;;;5074221;28;20041;-65
2022/07/02 00:47:16;;;;;;;1.40;0.50;;;13.50;99.90;;;;;;5074336;28;20133;-65
2022/07/02 00:49:42;;;;;;;2.50;0.47;;;13.50;99.90;;;;;;5072514;28;20051;-65
2022/07/02 00:52:08;;;;;;;1.40;0.70;;;13.50;99.90;;;;;;5074263;28;20044;-65
2022/07/02 00:54:37;;;;;;;2.75;0.40;;;13.50;99.90;;;;;;5074457;28;20119;-66
2022/07/02 00:57:03;;;;;;;1.20;0.57;;;13.50;99.90;;;;;;5074230;28;20056;-65
2022/07/02 00:59:30;;;;;;;3.47;0.50;;;13.50;99.90;;;;;;5073794;28;20457;-69
2022/07/02 01:01:56;;;;;;;1.60;0.40;;;13.50;99.90;;;;;;5072782;28;20109;-70
2022/07/02 01:04:23;;;;;;;2.25;0.70;;;13.50;99.90;;;;;;5074224;28;20127;-69
2022/07/02 01:06:50;;;;;;;3.42;0.70;;;13.60;99.90;;;;;;5074327;28;20071;-66
2022/07/02 01:12:03;;;;;;;5.00;0.85;;;13.50;99.90;;;;;;5073822;28;20038;-65
2022/07/02 01:14:30;;;;;;;2.25;0.68;;;13.50;99.90;;;;;;5074012;28;20066;-70
2022/07/02 01:16:56;;;;;;;2.40;0.63;;;13.40;99.90;;;;;;5073762;28;20581;-70
2022/07/02 01:19:23;;;;;;;0.80;0.50;;;13.40;99.90;;;;;;5073987;28;20049;-66
2022/07/02 01:22:15;;;;;;;1.90;0.55;;;13.30;99.90;;;;;;5073915;28;20040;-65
2022/07/02 01:24:41;;;;;;;2.58;0.50;;;13.30;99.90;;;;;;5073872;28;20032;-65
2022/07/02 01:27:07;;;;;;;4.28;0.40;;;13.30;99.90;;;;;;5073847;28;20053;-69
2022/07/02 01:29:33;;;;;;;1.05;0.50;;;13.40;99.90;;;;;;5073928;28;20495;-65
2022/07/02 01:31:59;;;;;;;3.53;0.80;;;13.30;99.90;;;;;;5073825;28;20043;-70
2022/07/02 01:34:25;;;;;;;4.05;0.47;;;13.20;99.90;;;;;;5073204;28;20052;-70
2022/07/02 01:36:51;;;;;;;3.65;0.60;;;13.10;99.90;;;;;;5073496;28;20546;-65
2022/07/02 01:39:24;;;;;;;4.20;0.60;;;13.20;99.90;;;;;;5073519;28;20074;-65
2022/07/02 01:41:50;;;;;;;2.30;0.50;;;13.30;99.90;;;;;;5073639;28;20044;-70
2022/07/02 01:44:15;;;;;;;3.90;0.40;;;13.20;99.90;;;;;;5073986;28;20036;-70
2022/07/02 01:46:44;;;;;;;2.58;0.60;;;13.40;99.90;;;;;;5073890;28;20041;-70
2022/07/02 01:49:10;;;;;;;6.28;0.93;;;13.30;99.90;;;;;;5073911;28;20115;-67
2022/07/02 01:51:36;;;;;;;2.83;0.40;;;13.30;99.90;;;;;;5073739;28;20044;-66
2022/07/02 01:54:02;;;;;;;2.03;0.68;;;13.30;99.90;;;;;;5073754;28;20033;-64
2022/07/02 01:56:34;;;;;;;2.88;0.30;;;13.30;99.90;;;;;;5073622;28;20158;-67
2022/07/02 01:59:00;;;;;;;2.00;0.40;;;13.30;99.90;;;;;;5073691;28;20055;-71
2022/07/02 02:01:26;;;;;;;1.58;0.63;;;13.30;99.90;;;;;;5075870;28;20085;-68
2022/07/02 02:03:52;;;;;;;2.08;0.47;;;13.30;99.90;;;;;;5074331;28;20511;-66
2022/07/02 02:06:18;;;;;;;1.50;0.47;;;13.30;99.90;;;;;;5076995;28;20041;-70
2022/07/02 02:08:44;;;;;;;3.67;0.60;;;13.10;99.90;;;;;;5076551;28;20127;-65
2022/07/02 02:11:10;;;;;;;3.55;0.50;;;13.10;99.90;;;;;;5076167;28;20041;-70
2022/07/02 02:13:36;;;;;;;3.28;0.52;;;13.30;99.90;;;;;;5077358;28;20040;-70
2022/07/02 02:16:02;;;;;;;1.30;0.60;;;13.20;99.90;;;;;;5077378;28;20048;-67
2022/07/02 02:18:30;;;;;;;1.02;0.50;;;13.10;99.90;;;;;;5077336;28;20059;-70
2022/07/02 02:20:56;;;;;;;2.33;0.60;;;13.20;99.90;;;;;;5077211;28;20138;-66
2022/07/02 02:23:26;;;;;;;3.53;0.77;;;13.20;99.90;;;;;;5077362;28;20486;-70
2022/07/02 02:25:51;;;;;;;1.60;0.52;;;13.20;99.90;;;;;;5075296;28;20090;-66
2022/07/02 02:28:17;;;;;;;4.30;0.70;;;13.00;99.90;;;;;;5077104;28;20562;-65
2022/07/02 02:30:43;;;;;;;3.22;0.55;;;12.90;99.90;;;;;;5077052;28;20040;-70
2022/07/02 02:33:09;;;;;;;2.35;0.63;;;12.90;99.90;;;;;;5076889;28;20126;-68
2022/07/02 02:35:34;;;;;;;5.10;0.52;;;12.90;99.90;;;;;;5076963;28;20115;-65
2022/07/02 02:38:00;;;;;;;1.10;0.50;;;13.10;99.90;;;;;;5076869;28;20106;-65
2022/07/02 02:40:26;;;;;;;2.28;0.40;;;13.10;99.90;;;;;;5076889;28;20043;-68
2022/07/02 02:42:52;;;;;;;4.57;0.60;;;13.20;99.90;;;;;;5076735;28;20072;-65
2022/07/02 02:45:17;;;;;;;2.45;0.88;;;13.30;99.90;;;;;;5076773;28;20032;-65
2022/07/02 02:47:43;;;;;;;1.80;0.60;;;13.30;99.90;;;;;;5076501;28;20048;-65
2022/07/02 02:50:09;;;;;;;1.17;0.60;;;13.30;99.90;;;;;;5076697;28;20407;-68
2022/07/02 02:52:35;;;;;;;2.30;0.65;;;13.50;99.90;;;;;;5076498;28;20043;-65
2022/07/02 02:55:00;;;;;;;4.60;0.60;;;13.40;99.90;;;;;;5076539;28;20067;-68
2022/07/02 02:57:27;;;;;;;4.63;0.80;;;13.40;99.90;;;;;;5076383;28;20080;-66
2022/07/02 02:59:53;;;;;;;1.92;0.77;;;13.30;99.90;;;;;;5076544;28;20464;-65
2022/07/02 03:02:18;;;;;;;1.10;0.43;;;13.40;99.90;;;;;;5076460;28;20067;-70
2022/07/02 03:04:44;;;;;;;1.45;0.60;;;13.40;99.90;;;;;;5076439;28;20040;-67
2022/07/02 03:07:10;;;;;;;3.13;0.70;;;13.30;99.90;;;;;;5076415;28;20028;-69
2022/07/02 03:09:36;;;;;;;1.75;0.43;;;13.40;99.90;;;;;;5076140;28;20036;-65
2022/07/02 03:12:01;;;;;;;0.43;0.38;;;13.40;99.90;;;;;;5075757;28;20032;-66
2022/07/02 03:14:27;;;;;;;1.50;0.77;;;13.20;99.90;;;;;;5076424;28;20154;-66
2022/07/02 03:16:53;;;;;;;1.13;0.47;;;13.20;99.90;;;;;;5076153;28;20404;-65
2022/07/02 03:19:19;;;;;;;5.85;0.57;;;13.20;99.90;;;;;;5076032;28;20415;-67
2022/07/02 03:21:44;;;;;;;5.63;1.02;;;13.20;99.90;;;;;;5076178;28;20562;-65
2022/07/02 03:24:10;;;;;;;4.25;0.75;;;13.20;99.90;;;;;;5076231;28;20047;-69
2022/07/02 03:26:36;;;;;;;1.50;0.47;;;13.10;99.90;;;;;;5076160;28;20036;-70
2022/07/02 03:29:01;;;;;;;1.27;0.52;;;13.00;99.90;;;;;;5076132;28;20399;-65
2022/07/02 03:31:27;;;;;;;1.77;0.60;;;12.90;99.90;;;;;;5076028;28;20048;-65
2022/07/02 03:33:53;;;;;;;1.75;0.63;;;12.70;99.90;;;;;;5076033;28;20033;-66
2022/07/02 03:36:19;;;;;;;2.15;0.80;;;12.70;99.90;;;;;;5075856;28;20041;-66
2022/07/02 03:38:45;;;;;;;2.30;0.70;;;12.60;99.90;;;;;;5075560;28;20047;-66
2022/07/02 03:41:10;;;;;;;3.80;0.60;;;12.70;99.90;;;;;;5075287;28;20043;-69
2022/07/02 03:43:36;;;;;;;1.25;0.47;;;12.60;99.90;;;;;;5075568;28;20063;-70
2022/07/02 03:46:02;;;;;;;2.35;0.80;;;12.50;99.90;;;;;;5075389;28;20503;-67
2022/07/02 03:48:28;;;;;;;2.28;0.82;;;12.50;99.90;;;;;;5075421;28;20120;-67
2022/07/02 03:50:54;;;;;;;4.25;0.73;;;12.40;99.90;;;;;;5075621;28;20491;-69
2022/07/02 03:53:19;;;;;;;2.75;0.65;;;12.40;99.90;;;;;;5075721;28;20037;-65
2022/07/02 03:55:46;;;;;;;4.03;0.77;;;12.40;99.90;;;;;;5075415;28;20503;-70
2022/07/02 03:58:12;;;;;;;2.83;0.60;;;12.40;99.90;;;;;;5075532;28;20044;-67
2022/07/02 04:00:38;;;;;;;2.13;0.60;;;12.20;99.90;;;;;;5075279;28;20047;-65
2022/07/02 04:03:03;;;;;;;3.17;0.98;;;12.00;99.90;;;;;;5075312;28;20032;-65
2022/07/02 04:05:29;;;;;;;0.77;0.40;;;12.00;99.90;;;;;;5075268;28;20041;-70
2022/07/02 04:07:55;;;;;;;2.10;0.50;;;12.20;99.90;;;;;;5075256;28;20040;-68
2022/07/02 04:10:21;;;;;;;2.35;0.63;;;12.20;99.90;;;;;;5075287;28;20044;-65
2022/07/02 04:12:47;;;;;;;3.30;0.52;;;12.20;99.90;;;;;;5075235;28;20044;-65
2022/07/02 04:15:13;;;;;;;1.50;0.70;;;12.20;99.90;;;;;;5075193;28;20039;-66
2022/07/02 04:17:39;;;;;;;2.05;0.68;;;12.30;99.90;;;;;;5073616;28;20044;-67
2022/07/02 04:20:05;;;;;;;2.25;0.60;;;12.30;99.90;;;;;;5074904;28;20036;-65
2022/07/02 04:22:31;;;;;;;2.83;0.60;;;12.10;99.90;;;;;;5074710;28;20032;-70
2022/07/02 04:24:57;;;;;;;3.65;0.55;;;11.90;99.90;;;;;;5074252;28;20043;-66
2022/07/02 04:27:22;;;;;;;1.23;0.55;;;11.70;99.90;;;;;;5074736;28;20036;-65
2022/07/02 04:29:48;;;;;;;3.00;0.73;;;11.60;99.90;;;;;;5074486;28;20127;-70
2022/07/02 04:32:14;;;;;;;4.70;0.55;;;11.60;99.90;;;;;;5074424;28;20040;-65
2022/07/02 04:34:40;;;;;;;3.92;0.70;;;11.70;99.90;;;;;;5074567;28;20044;-70
2022/07/02 04:37:07;;;;;;;1.50;0.50;;;11.80;99.90;;;;;;5074314;28;20055;-66
2022/07/02 04:39:32;;;;;;;1.77;0.52;;;11.90;99.90;;;;;;5074350;28;20056;-67
2022/07/02 04:41:58;;;;;;;2.85;0.77;;;12.00;99.90;;;;;;5074551;28;20032;-71
2022/07/02 04:44:27;;;;;;;2.38;0.65;;;12.10;99.90;;;;;;5074499;28;20102;-67
2022/07/02 04:46:55;;;;;;;2.47;0.70;;;12.20;99.90;;;;;;5074047;28;20036;-69
2022/07/02 04:49:21;;;;;;;1.67;0.40;;;12.30;99.90;;;;;;5074470;28;20036;-70
2022/07/02 04:51:46;;;;;;;2.85;0.47;;;12.40;99.90;;;;;;5074479;28;20082;-64
2022/07/02 04:54:12;;;;;;;1.38;0.50;;;12.50;99.90;;;;;;5074363;28;20504;-65
2022/07/02 04:56:38;;;;;;;6.10;0.70;;;12.60;99.90;;;;;;5069420;28;20040;-66
2022/07/02 04:59:03;;;;;;;2.13;0.50;;;12.70;99.90;;;;;;5074179;28;20055;-65
2022/07/02 05:01:29;;;;;;;3.58;0.70;;;12.80;99.90;;;;;;5074196;28;20085;-69
2022/07/02 05:03:55;;;;;;;3.97;0.50;;;13.00;99.90;;;;;;5074407;28;20134;-71
2022/07/02 05:06:22;;;;;;;4.32;0.60;;;13.10;99.90;;;;;;5074226;28;20491;-65
2022/07/02 05:08:48;;;;;;;4.57;0.60;;;12.80;99.90;;;;;;5073523;28;20039;-66
2022/07/02 05:11:18;;;;;;;3.40;0.60;;;12.40;99.90;;;;;;5074177;28;20111;-66
2022/07/02 05:13:44;;;;;;;3.03;0.63;;;12.40;99.90;;;;;;5074153;28;20503;-66
2022/07/02 05:16:10;;;;;;;3.40;0.70;;;12.90;99.90;;;;;;5074140;28;20047;-66
2022/07/02 05:18:36;;;;;;;5.88;0.50;;;13.50;99.90;;;;;;5074176;28;20051;-66
2022/07/02 05:21:01;;;;;;;3.35;0.40;;;13.70;99.90;;;;;;5074215;28;20032;-70
2022/07/02 05:23:27;;;;;;;1.75;0.35;;;13.90;99.90;;;;;;5074051;28;20041;-67
2022/07/02 05:25:53;;;;;;;1.42;0.57;;;14.10;99.90;;;;;;5074053;28;20107;-71
2022/07/02 05:28:19;;;;;;;6.43;0.68;;;14.00;99.90;;;;;;5089372;28;20129;-71
2022/07/02 05:30:45;;;;;;;2.45;0.68;;;13.90;99.90;;;;;;5073881;28;20047;-69
2022/07/02 05:33:10;;;;;;;5.38;0.55;;;14.00;99.90;;;;;;5071533;28;20033;-71
2022/07/02 05:35:36;;;;;;;3.53;0.90;;;14.20;99.90;;;;;;5073513;28;20110;-66
2022/07/02 05:38:02;;;;;;;2.40;0.80;;;14.50;99.90;;;;;;5072338;28;20048;-65
2022/07/02 05:40:28;;;;;;;2.15;0.88;;;14.80;99.90;;;;;;5073806;28;20078;-68
2022/07/02 05:42:54;;;;;;;2.70;0.75;;;;;;;;;;5073122;28;20407;-70
2022/07/02 05:45:20;;;;;;;3.13;0.70;;;15.00;99.90;;;;;;5073800;28;20067;-67
2022/07/02 05:47:46;;;;;;;3.78;1.17;;;15.20;99.90;;;;;;5073798;28;20040;-66
2022/07/02 05:50:12;;;;;;;5.45;0.80;;;15.30;99.90;;;;;;5073602;28;20041;-72
2022/07/02 05:52:38;;;;;;;1.38;0.40;;;15.50;99.90;;;;;;5073427;28;20040;-71
2022/07/02 05:55:04;;;;;;;2.78;0.52;;;15.70;99.90;;;;;;5073540;28;20036;-73
2022/07/02 05:57:30;;;;;;;1.67;0.57;;;15.80;99.90;;;;;;5073356;28;20052;-73
2022/07/02 05:59:56;;;;;;;1.52;0.52;;;16.20;99.90;;;;;;5073929;28;20043;-65
2022/07/02 06:02:23;;;;;;;1.88;0.65;;;16.20;99.90;;;;;;5073223;28;20036;-70
2022/07/02 06:04:49;;;;;;;3.25;0.80;;;16.60;99.90;;;;;;5072811;28;20085;-72
2022/07/02 06:09:59;;;;;;;4.00;0.60;;;17.00;99.90;;;;;;5054954;28;20068;-70
2022/07/02 06:12:25;;;;;;;4.07;0.70;;;17.40;99.90;;;;;;5072984;28;20499;-71
2022/07/02 06:14:51;;;;;;;4.75;0.82;;;;;;;;;;5072830;28;20052;-71
2022/07/02 06:17:17;;;;;;;1.95;0.40;;;17.70;99.90;;;;;;5071511;28;20048;-71
2022/07/02 06:19:47;;;;;;;1.77;0.60;;;;;;;;;;5072804;28;20040;-69
2022/07/02 06:22:13;;;;;;;1.52;0.73;;;18.00;99.90;;;;;;5070716;28;20399;-72
2022/07/02 06:24:39;;;;;;;2.35;0.80;;;18.20;99.90;;;;;;5071828;28;20123;-70
2022/07/02 06:27:06;;;;;;;3.63;0.40;;;18.40;99.90;;;;;;5071775;28;20036;-71
2022/07/02 06:29:32;;;;;;;2.40;0.50;;;18.30;99.90;;;;;;5071773;28;20474;-70
2022/07/02 06:31:58;;;;;;;1.75;0.60;;;18.20;99.90;;;;;;5066939;28;20051;-67
2022/07/02 06:34:24;;;;;;;3.10;0.63;;;18.20;99.90;;;;;;5070072;28;20111;-66
2022/07/02 06:36:49;;;;;;;1.75;0.70;;;18.10;99.90;;;;;;5070435;28;20051;-71
2022/07/02 06:39:15;;;;;;;3.08;0.70;;;18.10;99.90;;;;;;5070425;28;20501;-67
2022/07/02 06:44:26;;;;;;;2.10;0.50;;;18.70;99.90;;;;;;5071086;28;20039;-68
2022/07/02 06:46:51;;;;;;;6.55;0.60;;;18.70;99.90;;;;;;5071650;28;20409;-68
2022/07/02 06:49:18;;;;;;;7.38;1.33;;;18.90;99.90;;;;;;5074912;28;20043;-68
2022/07/02 06:51:44;;;;;;;1.52;0.50;;;18.80;99.90;;;;;;5071508;28;20032;-71
2022/07/02 06:54:10;;;;;;;5.63;0.88;;;19.00;99.90;;;;;;5074620;28;20384;-69
2022/07/02 06:56:36;;;;;;;1.38;0.38;;;19.30;99.90;;;;;;5073084;28;20048;-67
2022/07/02 06:59:06;;;;;;;4.47;0.60;;;19.30;99.90;;;;;;5073593;28;20052;-71
2022/07/02 07:01:32;;;;;;;;;;;19.10;99.90;;;;;;5073036;28;20041;-67
2022/07/02 07:03:58;;;;;;;1.15;0.50;;;19.20;99.90;;;;;;5071263;28;19935;-71
2022/07/02 07:06:25;;;;;;;5.55;0.70;;;18.90;99.90;;;;;;5074486;28;20086;-68
2022/07/02 07:08:53;;;;;;;5.05;0.88;;;19.00;99.90;;;;;;5074686;28;20080;-69
2022/07/02 07:11:22;;;;;;;3.72;0.60;;;19.00;99.90;;;;;;5075029;28;20045;-68
2022/07/02 07:13:49;;;;;;;4.20;0.80;;;19.20;99.90;;;;;;5087267;28;20071;-67
2022/07/02 07:16:15;;;;;;;0.88;0.50;;;19.30;99.90;;;;;;5074070;28;20047;-67
2022/07/02 07:18:45;;;;;;;5.47;0.50;;;19.60;99.90;;;;;;5075853;28;20035;-71
2022/07/02 07:21:11;;;;;;;1.77;0.60;;;;;;;;;;5076401;28;20045;-67
2022/07/02 07:23:37;;;;;;;6.40;0.85;;;19.90;99.90;;;;;;5076120;28;20041;-72
2022/07/02 07:26:02;;;;;;;4.82;0.50;;;20.20;99.90;;;;;;5074694;28;20040;-67
2022/07/02 07:28:28;;;;;;;2.00;0.43;;;;;;;;;;5076275;28;20035;-72
2022/07/02 07:30:55;;;;;;;4.70;0.55;;;20.90;99.90;;;;;;5076003;28;20125;-67
2022/07/02 07:33:20;;;;;;;1.02;0.47;;;20.70;99.90;;;;;;5075916;28;20407;-67
2022/07/02 07:35:46;;;;;;;0.90;0.50;;;21.00;99.90;;;;;;5076111;28;20044;-71
2022/07/02 07:38:12;;;;;;;1.58;0.60;;;21.30;99.90;;;;;;5075895;28;20211;-68
2022/07/02 07:40:38;;;;;;;2.72;1.33;;;;;;;;;;5076012;28;20103;-72
2022/07/02 07:43:04;;;;;;;2.85;0.80;;;21.50;99.90;;;;;;5075821;28;20052;-67
2022/07/02 07:45:30;;;;;;;4.15;0.73;;;21.40;99.90;;;;;;5074401;28;20040;-67
2022/07/02 07:47:56;;;;;;;4.65;0.77;;;21.40;99.90;;;;;;5074325;28;20090;-72
2022/07/02 07:50:22;;;;;;;1.45;0.50;;;21.70;99.90;;;;;;5075769;28;20040;-67
2022/07/02 07:52:48;;;;;;;1.65;0.50;;;21.40;99.90;;;;;;5075814;28;20032;-67
2022/07/02 07:55:14;;;;;;;2.20;0.50;;;21.60;99.90;;;;;;5075743;28;20047;-67
2022/07/02 07:57:40;;;;;;;0.98;0.50;;;21.90;99.90;;;;;;5074968;28;20123;-72
2022/07/02 08:00:06;;;;;;;2.85;0.98;;;22.20;99.90;;;;;;5074945;28;20356;-67
2022/07/02 08:02:32;;;;;;;5.80;0.40;;;22.50;99.90;;;;;;5075310;28;20055;-68
2022/07/02 08:04:58;;;;;;;6.68;1.00;;;22.50;99.90;;;;;;5075622;28;20036;-72
2022/07/02 08:07:24;;;;;;;2.30;0.47;;;22.80;99.90;;;;;;5075500;28;20083;-72
2022/07/02 08:09:54;;;;;;;2.33;0.55;;;22.70;99.90;;;;;;5075460;28;20025;-71
2022/07/02 08:12:22;;;;;;;3.33;0.50;;;22.90;99.90;;;;;;5075464;28;20161;-67
2022/07/02 08:14:49;;;;;;;1.48;0.50;;;22.60;99.90;;;;;;5075282;28;20202;-72
2022/07/02 08:17:15;;;;;;;2.65;0.73;;;22.80;99.90;;;;;;5073729;28;20055;-67
2022/07/02 08:19:41;;;;;;;4.72;0.80;;;22.60;99.90;;;;;;5075361;28;20051;-67
2022/07/02 08:22:07;;;;;;;2.63;0.98;;;22.70;99.90;;;;;;5075176;28;20036;-68
2022/07/02 08:24:33;;;;;;;3.35;0.90;;;22.70;99.90;;;;;;5075031;28;20036;-69
2022/07/02 08:26:59;;;;;;;2.63;0.68;;;23.00;99.90;;;;;;5074926;28;20080;-67
2022/07/02 08:29:24;;;;;;;2.50;0.52;;;23.20;99.90;;;;;;5075072;28;20052;-67
2022/07/02 08:31:52;;;;;;;3.20;0.77;;;23.60;99.90;;;;;;5074918;28;20051;-72
2022/07/02 08:34:17;;;;;;;1.00;0.47;;;23.90;99.90;;;;;;5074746;28;20565;-71
2022/07/02 08:36:43;;;;;;;3.35;0.50;;;23.90;99.90;;;;;;5074802;28;20052;-67
2022/07/02 08:39:09;;;;;;;2.80;0.60;;;23.90;99.90;;;;;;5074841;28;20059;-70
2022/07/02 08:41:36;;;;;;;4.75;0.65;;;24.00;99.90;;;;;;5073449;28;20040;-71
2022/07/02 08:44:05;;;;;;;1.08;0.55;;;23.90;99.90;;;;;;5074744;28;20044;-72
2022/07/02 08:46:32;;;;;;;0.70;0.40;;;23.60;99.80;;;;;;5073384;28;20037;-72
2022/07/02 08:49:00;;;;;;;1.85;0.50;;;23.50;99.70;;;;;;5074717;28;20036;-72
2022/07/02 08:51:26;;;;;;;1.42;0.60;;;23.60;99.40;;;;;;5074795;28;20511;-66
2022/07/02 08:53:52;;;;;;;2.55;0.60;;;23.90;99.90;;;;;;5074661;28;20072;-67
2022/07/02 08:56:19;;;;;;;2.42;0.75;;;23.90;99.70;;;;;;5074622;28;20042;-68
2022/07/02 08:58:46;;;;;;;1.83;0.50;;;23.90;99.50;;;;;;5074094;28;20063;-67
2022/07/02 09:01:13;;;;;;;4.43;0.55;;;24.00;98.70;;;;;;5074227;28;20041;-67
2022/07/02 09:03:39;;;;;;;3.55;0.70;;;23.60;99.90;;;;;;5074307;28;20044;-73
2022/07/02 09:06:06;;;;;;;4.78;0.70;;;23.90;99.50;;;;;;5073128;28;20032;-67
2022/07/02 09:08:33;;;;;;;4.38;0.93;;;24.10;99.10;;;;;;5074301;28;20415;-66
2022/07/02 09:11:00;;;;;;;1.75;0.70;;;24.20;99.30;;;;;;5073982;28;20465;-67
2022/07/02 09:13:27;;;;;;;2.33;0.60;;;24.30;96.50;;;;;;5074256;28;20040;-73
2022/07/02 09:15:54;;;;;;;1.13;0.60;;;24.00;97.00;;;;;;5072895;28;20040;-67
2022/07/02 09:18:20;;;;;;;0.80;0.52;;;23.60;97.10;;;;;;5074019;28;20079;-66
2022/07/02 09:20:46;;;;;;;2.22;0.80;;;24.60;99.00;;;;;;5074262;28;20487;-66
2022/07/02 09:23:22;;;;;;;3.63;0.57;;;24.50;96.80;;;;;;5074077;28;20476;-66
2022/07/02 09:25:49;;;;;;;2.25;0.70;;;24.40;98.10;;;;;;5074039;28;20082;-72
2022/07/02 09:28:16;;;;;;;3.13;1.05;;;24.90;98.80;;;;;;5074135;28;20127;-66
2022/07/02 09:30:43;;;;;;;2.13;0.60;;;24.90;96.70;;;;;;5073951;28;20131;-67
2022/07/02 09:33:30;;;;;;;4.05;0.68;;;24.80;98.90;;;;;;5074029;28;20028;-73
2022/07/02 09:35:57;;;;;;;1.42;0.40;;;24.50;96.20;;;;;;5073812;28;20473;-72
2022/07/02 09:38:23;;;;;;;1.48;0.60;;;24.80;98.80;;;;;;5073754;28;20093;-73
2022/07/02 09:40:57;;;;;;;2.75;0.57;;;25.10;95.90;;;;;;5074029;28;20036;-72
2022/07/02 09:43:27;;;;;;;0.73;0.43;;;25.20;96.90;;;;;;5073923;28;20483;-67
2022/07/02 09:45:54;;;;;;;1.33;0.40;;;24.30;98.40;;;;;;5073990;28;20041;-67
2022/07/02 09:48:20;;;;;;;3.22;0.88;;;24.10;96.30;;;;;;5073905;28;20036;-67
2022/07/02 09:50:46;;;;;;;1.42;0.70;;;24.40;95.90;;;;;;5073843;28;20036;-73
2022/07/02 09:53:12;;;;;;;2.60;0.60;;;24.50;96.50;;;;;;5073904;28;20044;-72
2022/07/02 09:55:38;;;;;;;4.30;0.85;;;24.90;99.90;;;;;;5073877;28;20068;-67
2022/07/02 09:58:05;;;;;;;4.72;0.88;;;24.70;96.60;;;;;;5072291;28;20122;-67
2022/07/02 10:00:33;;;;;;;3.00;0.60;;;25.20;97.50;;;;;;5073629;28;20047;-72
2022/07/02 10:03:01;;;;;;;1.38;0.43;;;25.10;96.60;;;;;;5073700;28;20526;-72
2022/07/02 10:05:29;;;;;;;1.23;0.63;;;25.40;98.00;;;;;;5073723;28;20101;-72
2022/07/02 10:07:58;;;;;;;0.40;0.30;;;25.20;95.40;;;;;;5073759;28;20059;-73
2022/07/02 10:10:38;;;;;;;1.55;0.63;;;25.20;96.20;;;;;;5073800;28;20101;-69
2022/07/02 10:13:09;;;;;;;1.67;0.47;;;25.20;96.70;;;;;;5073526;28;20392;-72
2022/07/02 10:15:39;;;;;;;1.50;0.50;;;25.00;96.50;;;;;;5073604;28;20047;-67
2022/07/02 10:18:05;;;;;;;2.72;0.70;;;25.30;98.20;;;;;;5073559;28;20512;-73
2022/07/02 10:20:33;;;;;;;2.72;1.30;;;24.90;96.00;;;;;;5070025;28;20072;-67
2022/07/02 10:23:06;;;;;;;2.05;0.73;;;25.00;98.00;;;;;;5075002;28;20403;-72
2022/07/02 10:25:34;;;;;;;0.98;0.65;;;24.30;96.50;;;;;;5077255;28;20391;-66
2022/07/02 10:28:00;;;;;;;1.83;0.40;;;24.40;96.30;;;;;;5077312;28;20049;-72
2022/07/02 10:30:34;;;;;;;1.10;0.40;;;24.70;96.90;;;;;;5077120;28;20112;-66
2022/07/02 10:33:06;;;;;;;2.25;0.50;;;24.50;95.90;;;;;;5075961;28;20400;-72
2022/07/02 10:35:34;;;;;;;1.30;0.45;;;25.10;95.30;;;;;;5075923;28;20028;-67
2022/07/02 10:38:01;;;;;;;2.22;0.40;;;25.10;96.20;;;;;;5077086;28;20056;-71
2022/07/02 10:40:28;;;;;;;5.20;0.73;;;25.00;94.90;;;;;;5076922;28;20483;-66
2022/07/02 10:42:57;;;;;;;2.08;0.57;;;25.00;95.80;;;;;;5076887;28;20132;-66
2022/07/02 10:45:24;;;;;;;2.13;0.60;;;25.30;96.50;;;;;;5077062;28;20529;-67
2022/07/02 10:48:01;;;;;;;2.60;0.68;;;25.40;96.00;;;;;;5076908;28;20056;-68
2022/07/02 10:50:34;;;;;;;4.25;0.50;;;25.20;98.30;;;;;;5076685;28;20064;-66
2022/07/02 10:53:08;;;;;;;1.63;0.50;;;25.20;96.60;;;;;;5076942;28;20119;-71
2022/07/02 10:55:34;;;;;;;2.50;0.82;;;25.40;95.90;;;;;;5076795;28;20051;-67
2022/07/02 10:58:03;;;;;;;2.42;0.40;;;25.20;94.90;;;;;;5076576;28;20048;-67
2022/07/02 11:00:39;;;;;;;2.47;0.45;;;25.20;94.80;;;;;;5076665;28;20028;-70
2022/07/02 11:03:18;;;;;;;1.00;0.50;;;25.20;94.00;;;;;;5076731;28;20522;-72
2022/07/02 11:05:54;;;;;;;1.13;0.63;;;25.10;95.10;;;;;;5076603;28;20050;-72
2022/07/02 11:08:46;;;;;;;1.77;0.75;;;25.60;95.80;;;;;;5076634;28;20090;-67
2022/07/02 11:11:29;;;;;;;5.72;0.90;;;26.10;96.70;;;;;;5071581;28;20392;-67
2022/07/02 11:13:58;;;;;;;0.70;0.40;;;26.00;95.50;;;;;;5076504;28;20044;-66
2022/07/02 11:16:31;;;;;;;1.40;0.50;;;25.90;94.00;;;;;;5076517;28;20060;-66
2022/07/02 11:19:00;;;;;;;1.48;0.50;;;25.30;92.80;;;;;;5075038;28;20074;-72
2022/07/02 11:21:27;;;;;;;1.70;0.40;;;24.90;92.30;;;;;;5076423;28;20041;-72
2022/07/02 11:23:53;;;;;;;3.55;0.40;;;24.90;94.10;;;;;;5076270;28;20044;-71
2022/07/02 11:26:22;;;;;;;2.13;0.35;;;25.00;92.30;;;;;;5076251;28;20029;-67
2022/07/02 11:28:49;;;;;;;1.15;0.60;;;24.80;92.50;;;;;;5076133;28;20052;-67
2022/07/02 11:31:21;;;;;;;1.63;0.45;;;24.60;91.50;;;;;;5076114;28;20090;-67
2022/07/02 11:33:52;;;;;;;2.55;0.45;;;24.50;92.70;;;;;;5075971;28;20430;-67
2022/07/02 11:36:19;;;;;;;1.13;0.40;;;24.20;91.90;;;;;;5076177;28;20094;-71
2022/07/02 11:38:46;;;;;;;1.48;0.38;;;24.40;92.90;;;;;;5076069;28;20483;-71
2022/07/02 11:41:20;;;;;;;3.45;0.50;;;25.00;92.60;;;;;;5075873;28;20036;-71
2022/07/02 11:43:47;;;;;;;0.95;0.40;;;25.40;94.00;;;;;;5075982;28;20099;-71
2022/07/02 11:46:16;;;;;;;0.60;0.40;;;25.30;93.30;;;;;;5075884;28;20097;-67
2022/07/02 11:48:42;;;;;;;1.55;0.40;;;24.80;95.30;;;;;;5075879;28;20044;-68
2022/07/02 11:51:07;;;;;;;1.27;0.70;;;25.30;93.50;;;;;;5076002;28;20040;-71
2022/07/02 11:53:34;;;;;;;1.33;0.73;;;25.50;93.50;;;;;;5075561;28;20036;-67
2022/07/02 11:56:11;;;;;;;1.25;0.50;;;25.20;93.50;;;;;;5075625;28;20487;-71
2022/07/02 11:58:46;;;;;;;0.85;0.50;;;25.50;93.40;;;;;;5075436;28;20051;-67
2022/07/02 12:01:23;;;;;;;1.33;0.38;;;24.70;91.30;;;;;;5075426;28;20032;-67
2022/07/02 12:03:50;;;;;;;1.50;0.40;;;24.60;91.30;;;;;;5075554;28;20049;-69
2022/07/02 12:06:16;;;;;;;1.30;0.57;;;25.30;94.00;;;;;;5075477;28;20064;-68
2022/07/02 12:08:42;;;;;;;2.00;0.80;;;25.80;92.40;;;;;;5075413;28;20119;-67
2022/07/02 12:11:16;;;;;;;1.65;0.70;;;25.70;94.50;;;;;;5075380;28;20119;-71
2022/07/02 12:13:43;;;;;;;1.10;0.40;;;25.60;94.40;;;;;;5074031;28;20044;-67
2022/07/02 12:16:14;;;;;;;0.40;0.40;;;25.80;94.20;;;;;;5075289;28;20029;-68
2022/07/02 12:18:41;;;;;;;2.35;0.43;;;25.40;93.60;;;;;;5075061;28;20380;-68
2022/07/02 12:21:14;;;;;;;2.17;0.47;;;25.40;93.00;;;;;;5074857;28;20039;-67
2022/07/02 12:23:49;;;;;;;2.25;0.57;;;25.40;93.60;;;;;;5075057;28;20048;-70
2022/07/02 12:26:20;;;;;;;3.38;0.77;;;25.40;93.00;;;;;;5073586;28;20062;-67
2022/07/02 12:31:53;;;;;;;0.80;0.47;;;26.20;93.40;;;;;;5073058;28;20518;-67
2022/07/02 12:34:21;;;;;;;0.75;0.35;;;26.00;92.50;;;;;;5073008;28;20094;-70
2022/07/02 12:36:55;;;;;;;1.08;0.50;;;25.70;91.00;;;;;;5072845;28;20119;-69
2022/07/02 12:39:23;;;;;;;0.90;0.40;;;25.90;93.40;;;;;;5073045;28;20403;-71
2022/07/02 12:41:49;;;;;;;1.85;0.50;;;26.00;91.80;;;;;;5074569;28;20028;-68
2022/07/02 12:44:16;;;;;;;1.20;0.50;;;25.90;90.90;;;;;;5074172;28;20145;-67
2022/07/02 12:46:44;;;;;;;2.47;0.57;;;26.10;93.00;;;;;;5074641;28;20457;-68
2022/07/02 12:49:21;;;;;;;1.05;0.57;;;25.20;90.00;;;;;;5074674;28;20075;-68
2022/07/02 12:52:02;;;;;;;0.80;0.28;;;25.40;94.70;;;;;;5074664;28;20123;-67
2022/07/02 12:54:39;;;;;;;0.90;0.40;;;25.90;92.80;;;;;;5074787;28;20036;-71
2022/07/02 12:57:18;;;;;;;2.78;0.50;;;25.70;93.20;;;;;;5074472;28;20530;-66
2022/07/02 12:59:45;;;;;;;3.38;0.77;;;25.40;92.50;;;;;;5074490;28;20119;-69